This is the latest recevied weather packets stored in our database for station/object wb2ifs-13. If no packets are shown the sender has not sent any weather packets the latest 1 day(s).
| Time | Temp. | Humidity | Pressure | Rain* | Wind** | Luminosity | Snow |
|---|---|---|---|---|---|---|---|
| 1778082299 | 16.67° C | 93% | 1011 hPa | 0 mm | - | - | - |
| 1778078699 | 16.11° C | 93% | 1011.7 hPa | 0 mm | - | - | - |
| 1778076899 | 16.11° C | 90% | 1011.7 hPa | 0.51 mm | - | - | - |
| 1778075100 | 16.67° C | 86% | 1011.9 hPa | 0.51 mm | - | - | - |
| 1778071499 | 17.78° C | 80% | 1011.3 hPa | 0 mm | - | - | - |
| 1778069700 | 18.33° C | 78% | 1011.8 hPa | 0 mm | - | - | - |
| 1778068801 | 18.33° C | 77% | 1011.7 hPa | 0 mm | - | - | - |
| 1778067900 | 18.33° C | 77% | 1011.7 hPa | 0 mm | - | - | - |
| 1778066999 | 18.33° C | 77% | 1011.4 hPa | 0 mm | - | - | - |
| 1778065201 | 17.78° C | 79% | 1011.2 hPa | 0 mm | - | - | - |
| 1778064299 | 17.78° C | 79% | 1011.2 hPa | 0 mm | - | - | - |
| 1778062499 | 17.78° C | 79% | 1011.2 hPa | 0 mm | - | - | - |
| 1778060699 | 17.78° C | 79% | 1011.2 hPa | 0 mm | - | - | - |
| 1778058001 | 18.33° C | 77% | 1011.4 hPa | 0 mm | - | - | - |
| 1778056199 | 18.89° C | 76% | 1011.3 hPa | 0 mm | - | - | - |
| 1778055299 | 18.89° C | 75% | 1011.3 hPa | 0 mm | - | - | - |
| 1778054401 | 18.89° C | 75% | 1011.3 hPa | 0 mm | - | - | - |
| 1778052600 | 19.44° C | 73% | 1011.2 hPa | 0 mm | - | - | - |
| 1778051699 | 19.44° C | 72% | 1011.4 hPa | 0 mm | - | - | - |
| 1778049900 | 20° C | 70% | 1011.6 hPa | 0 mm | - | - | - |
| 1778048098 | 20.56° C | 67% | 1011.6 hPa | 0 mm | - | - | - |
| 1778047200 | 21.11° C | 66% | 1011.6 hPa | 0 mm | - | - | - |
| 1778044499 | 21.67° C | 62% | 1012.1 hPa | 0 mm | - | - | - |
| 1778043602 | 21.67° C | 61% | 1012.2 hPa | 0 mm | - | - | - |
| 1778042700 | 21.67° C | 59% | 1012.1 hPa | 0 mm | - | - | - |
* Rain latest hour (hover to see other rain measurements)
** Current wind speed in m/s (hover to see current wind gust speed)